createdAt,value
2023-03-20T00:01:39.294Z,33.70
2023-03-20T00:06:42.214Z,33.47
2023-03-20T00:11:49.230Z,33.78
2023-03-20T00:16:53.756Z,33.45
2023-03-20T00:21:57.602Z,33.17
2023-03-20T00:27:02.658Z,33.35
2023-03-20T00:32:09.535Z,33.33
2023-03-20T00:37:12.826Z,34.13
2023-03-20T00:42:22.604Z,33.42
2023-03-20T00:47:28.506Z,33.60
2023-03-20T00:52:31.505Z,33.63
2023-03-20T00:57:41.232Z,33.83
2023-03-20T01:02:45.792Z,33.58
2023-03-20T01:07:49.740Z,33.72
2023-03-20T01:12:52.696Z,33.95
2023-03-20T01:17:57.100Z,33.40
2023-03-20T01:23:00.024Z,33.50
2023-03-20T01:28:05.248Z,33.38
2023-03-20T01:33:15.450Z,33.47
2023-03-20T01:38:22.761Z,34.03
2023-03-20T01:43:29.120Z,33.35
2023-03-20T01:48:57.209Z,33.78
2023-03-20T01:54:06.039Z,33.72
2023-03-20T01:59:15.344Z,34.08
2023-03-20T02:04:23.948Z,33.33
2023-03-20T02:09:31.502Z,33.47
2023-03-20T02:14:37.778Z,33.65
2023-03-20T02:20:11.202Z,33.63
2023-03-20T02:25:43.471Z,34.03
2023-03-20T02:31:16.067Z,33.72
2023-03-20T02:36:49.516Z,34.38
2023-03-20T02:42:00.751Z,33.70
2023-03-20T02:47:08.572Z,33.85
2023-03-20T02:52:21.120Z,34.10
2023-03-20T02:57:35.266Z,34.25
2023-03-20T03:02:49.777Z,34.50
2023-03-20T03:07:57.317Z,34.47
2023-03-20T03:13:04.602Z,34.05
2023-03-20T03:18:12.719Z,34.08
2023-03-20T03:23:22.531Z,34.08
2023-03-20T03:28:30.912Z,33.88
2023-03-20T03:33:35.959Z,34.28
2023-03-20T03:38:45.936Z,33.95
2023-03-20T03:43:56.728Z,34.33
2023-03-20T03:49:00.520Z,34.03
2023-03-20T03:54:06.897Z,33.72
2023-03-20T03:59:17.580Z,33.75
2023-03-20T04:04:21.903Z,33.85
2023-03-20T04:09:25.939Z,33.67
2023-03-20T04:14:30.634Z,33.97
2023-03-20T04:19:33.781Z,33.88
2023-03-20T04:24:36.851Z,34.05
2023-03-20T04:29:41.432Z,33.67
2023-03-20T04:35:10.722Z,33.83
2023-03-20T04:40:28.480Z,34.00
2023-03-20T04:45:32.911Z,33.88
2023-03-20T04:50:36.161Z,34.35
2023-03-20T04:55:39.616Z,34.72
2023-03-20T05:00:45.315Z,35.22
2023-03-20T05:05:48.296Z,34.72
2023-03-20T05:10:51.853Z,34.70
2023-03-20T05:16:22.137Z,34.13
2023-03-20T05:21:47.557Z,34.25
2023-03-20T05:27:02.577Z,34.22
2023-03-20T05:32:23.875Z,38.55
2023-03-20T05:37:38.592Z,34.83
2023-03-20T05:42:47.556Z,34.60
2023-03-20T05:47:51.771Z,34.58
2023-03-20T05:53:02.686Z,34.33
2023-03-20T05:58:25.896Z,34.70
2023-03-20T06:03:41.744Z,34.78
2023-03-20T06:08:52.459Z,34.72
2023-03-20T06:13:55.808Z,34.40
2023-03-20T06:19:03.148Z,34.42
2023-03-20T06:24:06.728Z,34.60
2023-03-20T06:29:09.733Z,35.08
2023-03-20T06:34:14.841Z,34.67
2023-03-20T06:39:21.208Z,35.05
2023-03-20T06:44:25.041Z,34.42
2023-03-20T06:49:52.118Z,34.25
2023-03-20T06:54:57.908Z,34.17
2023-03-20T07:00:01.406Z,34.50
2023-03-20T07:05:08.208Z,34.08
2023-03-20T07:10:13.341Z,34.58
2023-03-20T07:15:22.177Z,34.35
2023-03-20T07:20:28.000Z,35.05
2023-03-20T07:25:41.862Z,34.70
2023-03-20T07:30:45.648Z,34.58
2023-03-20T07:35:55.010Z,35.03
2023-03-20T07:40:58.094Z,34.25
2023-03-20T07:46:03.426Z,34.33
2023-03-20T07:51:08.389Z,34.55
2023-03-20T07:56:11.573Z,34.80
2023-03-20T08:01:14.597Z,34.92
2023-03-20T08:06:18.852Z,34.92
2023-03-20T08:11:22.058Z,35.03
2023-03-20T08:16:25.304Z,35.20
2023-03-20T08:21:29.973Z,35.05
2023-03-20T08:26:32.904Z,35.03
2023-03-20T08:31:36.037Z,35.70
2023-03-20T08:36:40.945Z,35.47
2023-03-20T08:41:45.750Z,35.17
2023-03-20T08:46:48.663Z,35.13
2023-03-20T08:51:52.967Z,35.88
2023-03-20T08:56:56.442Z,35.47
2023-03-20T09:01:59.403Z,36.95
2023-03-20T09:07:04.024Z,35.58
2023-03-20T09:12:07.488Z,35.30
2023-03-20T09:17:10.363Z,35.30
2023-03-20T09:22:18.009Z,35.53
2023-03-20T09:27:21.586Z,35.92
2023-03-20T09:32:24.523Z,35.70
2023-03-20T09:37:29.162Z,35.13
2023-03-20T09:42:43.198Z,36.50
2023-03-20T09:47:54.713Z,36.08
2023-03-20T09:53:07.121Z,35.38
2023-03-20T09:58:18.207Z,35.40
2023-03-20T10:03:26.182Z,35.75
2023-03-20T10:08:34.592Z,35.65
2023-03-20T10:13:55.490Z,36.75
2023-03-20T10:19:06.965Z,36.63
2023-03-20T10:24:19.634Z,36.42
2023-03-20T10:29:34.116Z,35.83
2023-03-20T10:34:58.213Z,36.75
2023-03-20T10:40:21.795Z,36.50
2023-03-20T10:45:34.788Z,36.58
2023-03-20T10:50:44.253Z,36.75
2023-03-20T10:55:48.712Z,35.83
2023-03-20T11:00:52.723Z,35.80
2023-03-20T11:06:09.358Z,35.30
2023-03-20T11:11:14.112Z,35.35
2023-03-20T11:16:22.845Z,35.92
2023-03-20T11:21:28.321Z,35.90
2023-03-20T11:26:38.318Z,35.42
2023-03-20T11:31:42.540Z,35.88
2023-03-20T11:37:08.745Z,35.95
2023-03-20T11:42:26.075Z,35.30
2023-03-20T11:47:32.768Z,34.85
2023-03-20T11:52:38.145Z,36.60
2023-03-20T11:57:46.820Z,37.10
2023-03-20T12:02:50.646Z,36.65
2023-03-20T12:07:58.111Z,36.35
2023-03-20T12:13:07.777Z,36.28
2023-03-20T12:18:17.049Z,35.35
2023-03-20T12:23:30.170Z,35.05
2023-03-20T12:28:41.815Z,35.05
2023-03-20T12:33:51.894Z,35.15
2023-03-20T12:38:54.862Z,35.05
2023-03-20T12:44:20.884Z,35.50
2023-03-20T12:49:34.646Z,36.13
2023-03-20T12:54:57.557Z,35.38
2023-03-20T13:00:16.404Z,35.40
2023-03-20T13:05:28.181Z,35.95
2023-03-20T13:10:35.607Z,35.88
2023-03-20T13:15:58.565Z,35.38
2023-03-20T13:21:10.637Z,35.80
2023-03-20T13:26:23.792Z,36.53
2023-03-20T13:31:37.896Z,35.95
2023-03-20T13:36:55.009Z,36.08
2023-03-20T13:42:00.145Z,35.88
2023-03-20T13:47:11.627Z,35.45
2023-03-20T13:52:17.814Z,35.33
2023-03-20T13:57:46.085Z,35.53
2023-03-20T14:03:18.473Z,37.47
2023-03-20T14:08:33.378Z,36.67
2023-03-20T14:13:36.979Z,35.28
2023-03-20T14:18:42.967Z,35.65
2023-03-20T14:23:50.656Z,35.55
2023-03-20T14:28:54.717Z,35.15
2023-03-20T14:34:17.883Z,36.00
2023-03-20T14:39:28.718Z,35.70
2023-03-20T14:44:49.913Z,35.17
2023-03-20T14:49:58.534Z,35.15
2023-03-20T14:55:31.537Z,34.88
2023-03-20T15:00:47.019Z,35.53
2023-03-20T15:05:57.606Z,35.20
2023-03-20T15:11:07.083Z,35.30
2023-03-20T15:16:14.461Z,34.80
2023-03-20T15:21:20.979Z,36.25
2023-03-20T15:26:25.535Z,35.97
2023-03-20T15:31:30.850Z,35.22
2023-03-20T15:36:37.216Z,35.80
2023-03-20T15:41:40.642Z,35.13
2023-03-20T15:46:52.626Z,35.75
2023-03-20T15:51:59.755Z,35.65
2023-03-20T15:57:03.569Z,35.75
2023-03-20T16:02:06.985Z,35.20
2023-03-20T16:07:21.501Z,35.22
2023-03-20T16:12:24.439Z,35.65
2023-03-20T16:17:27.762Z,35.90
2023-03-20T16:22:34.015Z,35.45
2023-03-20T16:27:37.708Z,35.53
2023-03-20T16:32:42.626Z,35.55
2023-03-20T16:37:49.818Z,35.63
2023-03-20T16:42:54.906Z,35.10
2023-03-20T16:48:28.211Z,34.88
2023-03-20T16:53:41.952Z,36.10
2023-03-20T16:58:46.760Z,35.35
2023-03-20T17:03:53.344Z,35.67
2023-03-20T17:09:03.723Z,34.85
2023-03-20T17:14:06.870Z,34.78
2023-03-20T17:19:15.598Z,34.83
2023-03-20T17:24:20.120Z,35.78
2023-03-20T17:29:23.084Z,35.13
2023-03-20T17:34:26.061Z,35.38
2023-03-20T17:39:30.619Z,35.50
2023-03-20T17:44:33.537Z,35.38
2023-03-20T17:49:36.512Z,36.28
2023-03-20T17:54:40.845Z,35.05
2023-03-20T17:59:43.794Z,34.80
2023-03-20T18:04:47.070Z,35.13
2023-03-20T18:09:51.620Z,34.70
2023-03-20T18:14:54.679Z,35.10
2023-03-20T18:19:57.681Z,35.30
2023-03-20T18:25:02.051Z,34.40
2023-03-20T18:30:05.471Z,34.45
2023-03-20T18:35:10.885Z,34.72
2023-03-20T18:40:20.804Z,34.65
2023-03-20T18:45:28.205Z,35.35
2023-03-20T18:50:37.504Z,35.03
2023-03-20T18:55:42.218Z,34.58
2023-03-20T19:00:45.223Z,34.85
2023-03-20T19:05:52.142Z,34.63
2023-03-20T19:10:56.575Z,34.83
2023-03-20T19:16:04.053Z,35.47
2023-03-20T19:21:07.906Z,35.03
2023-03-20T19:26:16.534Z,34.65
2023-03-20T19:31:19.612Z,34.47
2023-03-20T19:36:26.698Z,34.65
2023-03-20T19:41:32.460Z,35.15
2023-03-20T19:46:40.042Z,34.55
2023-03-20T19:51:43.878Z,34.78
2023-03-20T19:56:48.140Z,34.95
2023-03-20T20:01:51.678Z,34.97
2023-03-20T20:06:55.786Z,35.22
2023-03-20T20:12:07.015Z,35.00
2023-03-20T20:17:10.142Z,35.45
2023-03-20T20:22:24.879Z,34.83
2023-03-20T20:27:31.437Z,34.58
2023-03-20T20:32:37.330Z,36.03
2023-03-20T20:38:27.126Z,36.13
2023-03-20T20:43:10.291Z,34.83
2023-03-20T20:48:13.805Z,35.25
2023-03-20T20:53:16.826Z,35.25
2023-03-20T20:58:21.089Z,34.78
2023-03-20T21:03:24.185Z,35.10
2023-03-20T21:08:27.108Z,34.95
2023-03-20T21:13:31.404Z,34.60
2023-03-20T21:18:34.507Z,34.97
2023-03-20T21:23:37.572Z,34.65
2023-03-20T21:28:42.285Z,34.50
2023-03-20T21:33:45.156Z,34.15
2023-03-20T21:39:06.779Z,34.47
2023-03-20T21:44:17.067Z,34.70
2023-03-20T21:50:19.323Z,34.22
2023-03-20T21:55:27.520Z,34.17
2023-03-20T22:33:16.798Z,34.28
2023-03-20T22:48:42.289Z,34.90
2023-03-20T22:53:45.198Z,34.10
2023-03-20T22:58:48.266Z,33.90
2023-03-20T23:03:52.519Z,34.17
2023-03-20T23:09:03.292Z,34.05
2023-03-20T23:14:20.569Z,34.67
2023-03-20T23:19:28.106Z,34.58
2023-03-20T23:24:32.813Z,34.67
2023-03-20T23:29:35.719Z,34.25
2023-03-20T23:34:40.399Z,34.13
2023-03-20T23:39:43.433Z,33.80
2023-03-20T23:44:55.348Z,33.85
2023-03-20T23:50:01.555Z,33.85
2023-03-20T23:55:05.389Z,34.53
